This site, now in its 15th season, is a labour of love and fun from one of Ottawa's most avid time trialists and number crunchers. It adheres to and is permitted by the laws of Canada, promotes the objectives of every bicycle club whose results are shown, and is donated free of charge by myself for your enjoyment and usage. If you would like results from series you ride in to be shown here, give me (celia@drmath.ca) a shout!


Index Page
ATT OTT WTT AATT CFCTT VVVTT
Help resultformat:
Case-sensitive

OBC Open TT Series - 1993-Jun-03 - 15km (Rockliffe Pkwy) (EvtFactor = 0.8760)

Weather (18:00): Mostly Cloudy. Temp.: 16.2C, Humidity: 49%, DewPoint: 5.5C, Wind: WNW 17km/h, Pressure: 99.43kPa, Visibility: 40.2km.
Weather (19:00): Mostly Cloudy. Temp.: 15.6C, Humidity: 49%, DewPoint: 5.0C, Wind: WNW 17km/h, Pressure: 99.43kPa, Visibility: 40.2km.
Weather (20:00): Mainly Clear. Temp.: 14.2C, Humidity: 55%, DewPoint: 5.2C, Wind: NW 13km/h, Pressure: 99.50kPa, Visibility: 40.2km.

Send photos with description (when/where/what) of yourself on or off of bike to celia@drmath.ca

 
 

BESTS?
 
1 Fraser, Gord --- 19:10 46.957 1/82 OSEM 1/32  
2 Cowan, Norman  OBC 20:36 43.689 2/82 OVAM 1/19 1.0848
3 Redding, Neil OBC 20:43 43.443 3/82 OVAM 2/19 0.9832
4 Simpson, Bob OBC 20:47 43.304 4/82 OVBM 1/10 1.0194
5 Georgas, Chris OBC 21:07 42.620 5/82 OVBM 2/10 1.0432
6 Burge, Craig  --- 21:16 42.320 6/82 OSEM 2/32 1.0698
7 Fraser, Ian OBC 21:19 42.220 7/82 OSEM 3/32 0.9953
8 Aller, Brian OBC 21:23 42.089 8/82 OVAM 3/19 1.1495
9 Morvan, Jacques  OBC 21:34 41.731 9/82 OVBM 3/10 1.0785
10 Bachman, Paul --- 21:43 41.443 11/82 OSEM 4/32 1.0828
11 Moerman, Bram  OBC 21:45 41.379 12/82 OVBM 4/10 1.0302
Roundell, Mark  OBC 21:45 41.379 12/82 OVAM 4/19  
13 Ferguson, James --- 21:51 41.190 14/82 OSEM 5/32  
14 Archambault, Marc --- 21:53 41.127 15/82 OSEM 6/32 1.0725
Hamilton, Peter OBC 21:53 41.127 15/82 OSEM 6/32 1.0558
16 Budd, Daniel OBC 21:56 41.033 17/82 OSEM 8/32 1.0963
Kemball, Colin OBC 21:56 41.033 17/82 OSEM 8/32 1.3937
18 Chiarelli, Marc --- 21:57 41.002 19/82 OSEM 10/32 1.4019
19 Allaire, François --- 22:05 40.755 20/82 OSEM 11/32  
Hinz, Richard OBC 22:05 40.755 20/82 OVAM 5/19 0.9315
21 St-Amour, Pierre OBC 22:07 40.693 22/82 OVAM 6/19 0.9865
22 Fairhead, Denis OBC 22:16 40.419 23/82 OVAM 7/19 1.0136
23 Guenette, Jean-Yves OBC 22:21 40.268 24/82 OVAM 8/19  
24 Martignago, Mike OBC 22:22 40.238 25/82 OSEM 12/32 0.9365
25 Buffa, Alex  OBC 22:24 40.179 26/82 OSEM 13/32 0.9389
26 Reinisch, Stephen OBC 22:31 39.970 27/82 OSEM 14/32 1.0382
27 Gould, Rob OBC 22:35 39.852 28/82 OVAM 9/19 1.0313
28 Varcoe, Robert --- 22:52 39.359 29/82 OVAM 10/19  
29 MacDonald, Ryan OBC 22:54 39.301 30/82 OSEM 15/32 0.9090
30 Heffler, Paul OBC 22:57 39.216 31/82 OSEM 16/32 1.1083
31 Jensen, Prapti OBC 22:58 39.187 32/82 OSEF 1/5 0.9237
32 McCutcheon, Drew --- 23:07 38.933 33/82 OSEM 17/32  
33 Georgas, Jim OBC 23:11 38.821 34/82 OVCM 1/3 0.9978
34 MacMillan, Trevor --- 23:18 38.627 35/82 OSEM 18/32  
35 Austen, Ian  OBC 23:25 38.434 36/82 OVAM 11/19 1.0654
36 Montpetit, Stephane OBC 23:26 38.407 37/82 OSEM 19/32 1.0000
37 Beasley, Graham --- 23:27 38.380 38/82 OVBM 5/10 0.9293
Tamborine, Don OBC 23:27 38.380 38/82 OVBM 5/10 1.0411
39 Bachman, Mike --- 23:30 38.298 40/82 OVBM 7/10 1.0432
40 Atkins, Brent --- 23:33 38.217 41/82 OSEM 20/32 0.9727
41 Stewart, Ian OBC 23:36 38.136 42/82 OVAM 12/19 1.0257
42 Paulin, Pierre OBC 23:38 38.082 43/82 OSEM 21/32 1.0826
43 Bowring, John --- 23:48 37.815 44/82 OJUM 1/6 0.9606
d'Arras, Robert --- 23:48 37.815 44/82 OVAM 13/19 1.1753
45 Schultz, Jay OBC 23:49 37.789 46/82 OSEM 22/32  
46 Revesz, Erika  OBC 23:57 37.578 47/82 OVAF 1/4  
47 Potvin, Nancy OBC 24:00 37.500 48/82 OSEF 2/5  
Thompson, Grant OBC 24:00 37.500 48/82 OSEM 23/32 0.7897
49 Paterson, Gail OBC 24:03 37.422 50/82 OSEF 3/5 1.1436
50 Bence, John OBC 24:09 37.267 51/82 OSEM 24/32  
Ménard, Monique OBC 24:09 37.267 51/82 OSEF 4/5 0.9713
52 Hicks, Terry OBC 24:10 37.241 53/82 OVAM 14/19 1.0850
53 Romkey, Gary OBC 24:24 36.885 54/82 OVBM 8/10 1.0289
54 Atkinson, John OBC 24:25 36.860 55/82 OVAM 15/19 0.9320
55 Hays, Ryan OBC 24:33 36.660 56/82 U18M 1/1  
56 Gilchrist, Ryan  OBC 24:34 36.635 57/82 OSEM 25/32 1.0143
57 Stewart, Rob --- 24:46 36.339 58/82 OVAM 16/19 1.0492
58 Somogyi, Michel OBC 24:53 36.169 59/82 OJUM 2/6 1.0121
59 Barber, Brian OBC 24:55 36.120 60/82 OSEM 26/32  
Soucy, Dominic OBC 24:55 36.120 60/82 OJUM 3/6 0.9979
61 Hope, Walter --- 24:58 36.048 62/82 OVAM 17/19 1.1622
62 Charlebois, Marc --- 25:01 35.976 63/82 OSEM 27/32  
63 Aller, Mo OBC 25:22 35.480 64/82 OVCM 2/3  
64 Vermette, Marc OBC 25:26 35.387 65/82 OSEM 28/32  
65 McDaniels, Karim OBC 25:34 35.202 66/82 OSEM 29/32  
66 Hollywood, Rudy OBC 25:43 34.997 67/82 OVBM 9/10 0.9410
67 Ajersch, Mary  OBC 25:49 34.861 68/82 OVBF 1/1 1.0734
68 Woods, Bob  OBC 25:58 34.660 69/82 OVAM 18/19 1.1965
69 MacDonell, Jennifer --- 26:05 34.505 70/82 OVAF 2/4  
70 Boileau, Greg OBC 26:07 34.461 71/82 OJUM 4/6  
71 Callum, John OBC 26:08 34.439 72/82 OJUM 5/6 1.0447
72 Brisson, Francis OBC 26:18 34.221 73/82 OSEM 30/32  
73 Smart, Eric OBC 26:22 34.134 74/82 OVCM 3/3 1.1141
74 Sharman, Killaine --- 26:25 34.069 75/82 OSEF 5/5  
75 Selep, Patrick OBC 26:47 33.603 76/82 OSEM 31/32  
76 Gasparelli, Rudy OBC 27:03 33.272 77/82 OVBM 10/10  
77 Montserrat, Fabienne OBC 27:36 32.609 78/82 OVAF 3/4 1.1362
78 McGovern, Farrell OBC 28:04 32.067 79/82 OVAM 19/19 1.0252
79 Fortey, Brian OBC 28:52 31.178 80/82 OJUM 6/6 0.9523
80 Chen, Jonathan --- 28:57 31.088 81/82 OSEM 32/32 0.8143
81 Girouard, Marcie OBC 29:39 30.354 82/82 OVAF 4/4  
 
Average Speed of all of the above 81 finishes (1215km in 32:10:11):37.768
>>>Average of the Average Speeds for these 81 finishes38.044<<<
 

The number of data records shown above is 81
The server processing of your query took: 1 wallclock secs ( 0.11 usr + 0.00 sys = 0.11 CPU)

Thanks to our Helpers: kevin Gibb, Joan Fraser, Ian B. Fraser, Bruce Callum, Joan Hollywood, Mike Montemurro.

     


Apr 9 (Good Friday) Apr 15 Apr 22 (cancelled) Apr 27 Apr 29
May 4 (10km) May 6 May 11 May 11 (10km) May 13 (22km) May 16 (40km) May 18 May 18 (10km) May 20 May 25 May 25 (10km) May 27 (38km) May 30 (40km)
Jun 1
  Jun 3  
Jun 8 Jun 10 (22km) Jun 15 Jun 17 Jun 22 Jun 22 Jun 24 (38km) Jun 25 Jun 27 (40km/80km) Jun 29 Jun 29 Jun 30
Jul 6 Jul 6 Jul 8 Jul 13 Jul 13 Jul 15 (38km) Jul 20 Jul 20 Jul 22 Jul 25 (80km) Jul 27 Jul 29 (22km)
Aug 3 Aug 3 Aug 5 Aug 7 (38km) Aug 10 Aug 10 Aug 12 Aug 15 (40km/80km) Aug 17 Aug 19 Aug 21 (22km) Aug 24 Aug 24 Aug 26 Aug 29 (40km) Aug 31 (Invitational)
Sep 2 Sep 7 Sep 9 Sep 14 Sep 16 Sep 25 (40km)

OTT Rankings
Best       Best by category
WTT Rankings for OBC Members
5 Best 15km     5 Best 15km by category
OBC Member Best Three 15km Rankings
Overall     by category
OBC BAR Ranking
Overall     by category     Rider "Consistency-Graph"
ABC BAR Ranking
Overall     by category     Rider "Consistency-Graph"
Other years
TT Calculator All TT People All TT events
ABC Home VVV Home
CKAP GOLD MEDAL
Other Links

Please send your comments and suggestions to: Celia McInnis
Copyright © 1998-2011 Celia McInnis. All rights reserved. Links are welcomed.